sensor_id;sensor_type;location;lat;lon;timestamp;temperature;humidity
13458;DHT22;6801;53.018;11.560;2022-09-28T00:02:03;11.40;78.40
13458;DHT22;6801;53.018;11.560;2022-09-28T00:04:31;11.50;78.40
13458;DHT22;6801;53.018;11.560;2022-09-28T00:06:58;11.40;78.40
13458;DHT22;6801;53.018;11.560;2022-09-28T00:09:26;11.50;78.40
13458;DHT22;6801;53.018;11.560;2022-09-28T00:11:53;11.50;78.40
13458;DHT22;6801;53.018;11.560;2022-09-28T00:14:21;11.40;78.40
13458;DHT22;6801;53.018;11.560;2022-09-28T00:16:49;11.40;78.40
13458;DHT22;6801;53.018;11.560;2022-09-28T00:19:16;11.50;78.50
13458;DHT22;6801;53.018;11.560;2022-09-28T00:21:44;11.40;78.50
13458;DHT22;6801;53.018;11.560;2022-09-28T00:24:12;11.40;78.40
13458;DHT22;6801;53.018;11.560;2022-09-28T00:26:45;11.40;78.40
13458;DHT22;6801;53.018;11.560;2022-09-28T00:29:19;11.40;78.40
13458;DHT22;6801;53.018;11.560;2022-09-28T00:31:47;11.40;78.50
13458;DHT22;6801;53.018;11.560;2022-09-28T00:34:17;11.40;78.40
13458;DHT22;6801;53.018;11.560;2022-09-28T00:36:46;11.40;78.40
13458;DHT22;6801;53.018;11.560;2022-09-28T00:39:14;11.40;78.40
13458;DHT22;6801;53.018;11.560;2022-09-28T00:41:41;11.40;78.40
13458;DHT22;6801;53.018;11.560;2022-09-28T00:44:43;11.40;78.30
13458;DHT22;6801;53.018;11.560;2022-09-28T00:47:19;11.40;78.30
13458;DHT22;6801;53.018;11.560;2022-09-28T00:49:50;11.40;78.30
13458;DHT22;6801;53.018;11.560;2022-09-28T00:52:25;11.40;78.20
13458;DHT22;6801;53.018;11.560;2022-09-28T00:54:54;11.40;78.20
13458;DHT22;6801;53.018;11.560;2022-09-28T00:57:22;11.40;78.20
13458;DHT22;6801;53.018;11.560;2022-09-28T00:59:50;11.40;78.20
13458;DHT22;6801;53.018;11.560;2022-09-28T01:02:18;11.30;78.20
13458;DHT22;6801;53.018;11.560;2022-09-28T01:04:46;11.40;78.20
13458;DHT22;6801;53.018;11.560;2022-09-28T01:07:15;11.30;78.20
13458;DHT22;6801;53.018;11.560;2022-09-28T01:09:44;11.30;78.20
13458;DHT22;6801;53.018;11.560;2022-09-28T01:12:12;11.30;78.20
13458;DHT22;6801;53.018;11.560;2022-09-28T01:14:39;11.30;78.30
13458;DHT22;6801;53.018;11.560;2022-09-28T01:17:12;11.30;78.20
13458;DHT22;6801;53.018;11.560;2022-09-28T01:20:13;11.30;78.30
13458;DHT22;6801;53.018;11.560;2022-09-28T01:23:17;11.30;78.20
13458;DHT22;6801;53.018;11.560;2022-09-28T01:25:54;11.30;78.30
13458;DHT22;6801;53.018;11.560;2022-09-28T01:28:27;11.30;78.20
13458;DHT22;6801;53.018;11.560;2022-09-28T01:31:00;11.30;78.30
13458;DHT22;6801;53.018;11.560;2022-09-28T01:33:33;11.30;78.40
13458;DHT22;6801;53.018;11.560;2022-09-28T01:36:06;11.30;78.30
13458;DHT22;6801;53.018;11.560;2022-09-28T01:38:37;11.20;78.30
13458;DHT22;6801;53.018;11.560;2022-09-28T01:41:07;11.30;78.30
13458;DHT22;6801;53.018;11.560;2022-09-28T01:43:39;11.20;78.30
13458;DHT22;6801;53.018;11.560;2022-09-28T01:46:11;11.20;78.40
13458;DHT22;6801;53.018;11.560;2022-09-28T01:48:44;11.20;78.40
13458;DHT22;6801;53.018;11.560;2022-09-28T01:51:16;11.20;78.50
13458;DHT22;6801;53.018;11.560;2022-09-28T01:53:48;11.20;78.50
13458;DHT22;6801;53.018;11.560;2022-09-28T01:56:23;11.20;78.60
13458;DHT22;6801;53.018;11.560;2022-09-28T01:58:55;11.10;78.50
13458;DHT22;6801;53.018;11.560;2022-09-28T02:01:27;11.20;78.40
13458;DHT22;6801;53.018;11.560;2022-09-28T02:03:59;11.20;78.40
13458;DHT22;6801;53.018;11.560;2022-09-28T02:06:32;11.20;78.30
13458;DHT22;6801;53.018;11.560;2022-09-28T02:09:08;11.20;78.20
13458;DHT22;6801;53.018;11.560;2022-09-28T02:11:46;11.20;78.20
13458;DHT22;6801;53.018;11.560;2022-09-28T02:14:16;11.10;78.20
13458;DHT22;6801;53.018;11.560;2022-09-28T02:16:47;11.10;78.10
13458;DHT22;6801;53.018;11.560;2022-09-28T02:19:16;11.20;78.10
13458;DHT22;6801;53.018;11.560;2022-09-28T02:21:53;11.20;78.10
13458;DHT22;6801;53.018;11.560;2022-09-28T02:24:27;11.10;78.00
13458;DHT22;6801;53.018;11.560;2022-09-28T02:26:57;11.10;78.10
13458;DHT22;6801;53.018;11.560;2022-09-28T02:29:31;11.10;78.00
13458;DHT22;6801;53.018;11.560;2022-09-28T02:31:58;11.10;78.00
13458;DHT22;6801;53.018;11.560;2022-09-28T02:34:25;11.10;78.00
13458;DHT22;6801;53.018;11.560;2022-09-28T02:36:52;11.10;77.90
13458;DHT22;6801;53.018;11.560;2022-09-28T02:39:20;11.10;77.90
13458;DHT22;6801;53.018;11.560;2022-09-28T02:41:58;11.10;77.80
13458;DHT22;6801;53.018;11.560;2022-09-28T02:44:42;11.10;77.80
13458;DHT22;6801;53.018;11.560;2022-09-28T02:47:20;11.10;77.80
13458;DHT22;6801;53.018;11.560;2022-09-28T02:49:55;11.10;77.60
13458;DHT22;6801;53.018;11.560;2022-09-28T02:52:38;11.00;77.60
13458;DHT22;6801;53.018;11.560;2022-09-28T02:55:19;11.00;77.60
13458;DHT22;6801;53.018;11.560;2022-09-28T02:58:09;11.00;77.60
13458;DHT22;6801;53.018;11.560;2022-09-28T03:00:45;11.00;77.50
13458;DHT22;6801;53.018;11.560;2022-09-28T03:03:18;11.00;77.40
13458;DHT22;6801;53.018;11.560;2022-09-28T03:05:52;11.00;77.50
13458;DHT22;6801;53.018;11.560;2022-09-28T03:08:23;11.00;77.50
13458;DHT22;6801;53.018;11.560;2022-09-28T03:10:52;11.00;77.40
13458;DHT22;6801;53.018;11.560;2022-09-28T03:13:22;10.90;77.40
13458;DHT22;6801;53.018;11.560;2022-09-28T03:16:04;10.90;77.20
13458;DHT22;6801;53.018;11.560;2022-09-28T03:18:31;10.90;77.20
13458;DHT22;6801;53.018;11.560;2022-09-28T03:20:59;10.90;77.30
13458;DHT22;6801;53.018;11.560;2022-09-28T03:23:26;10.80;77.30
13458;DHT22;6801;53.018;11.560;2022-09-28T03:25:53;10.80;77.30
13458;DHT22;6801;53.018;11.560;2022-09-28T03:28:20;10.80;77.30
13458;DHT22;6801;53.018;11.560;2022-09-28T03:30:48;10.80;77.30
13458;DHT22;6801;53.018;11.560;2022-09-28T03:33:16;10.80;77.30
13458;DHT22;6801;53.018;11.560;2022-09-28T03:35:45;10.70;77.40
13458;DHT22;6801;53.018;11.560;2022-09-28T03:38:13;10.80;77.40
13458;DHT22;6801;53.018;11.560;2022-09-28T03:40:42;10.80;77.40
13458;DHT22;6801;53.018;11.560;2022-09-28T03:43:09;10.80;77.40
13458;DHT22;6801;53.018;11.560;2022-09-28T03:45:36;10.70;77.30
13458;DHT22;6801;53.018;11.560;2022-09-28T03:48:03;10.70;77.20
13458;DHT22;6801;53.018;11.560;2022-09-28T03:50:34;10.70;77.20
13458;DHT22;6801;53.018;11.560;2022-09-28T03:53:02;10.70;77.10
13458;DHT22;6801;53.018;11.560;2022-09-28T03:55:29;10.60;77.10
13458;DHT22;6801;53.018;11.560;2022-09-28T03:57:56;10.60;77.20
13458;DHT22;6801;53.018;11.560;2022-09-28T04:00:23;10.60;77.20
13458;DHT22;6801;53.018;11.560;2022-09-28T04:02:50;10.60;77.20
13458;DHT22;6801;53.018;11.560;2022-09-28T04:05:17;10.60;77.10
13458;DHT22;6801;53.018;11.560;2022-09-28T04:07:45;10.60;77.10
13458;DHT22;6801;53.018;11.560;2022-09-28T04:10:12;10.60;77.00
13458;DHT22;6801;53.018;11.560;2022-09-28T04:12:39;10.50;77.00
13458;DHT22;6801;53.018;11.560;2022-09-28T04:15:07;10.50;77.00
13458;DHT22;6801;53.018;11.560;2022-09-28T04:17:34;10.50;77.00
13458;DHT22;6801;53.018;11.560;2022-09-28T04:20:01;10.50;77.10
13458;DHT22;6801;53.018;11.560;2022-09-28T04:22:58;10.50;77.10
13458;DHT22;6801;53.018;11.560;2022-09-28T04:25:25;10.40;77.10
13458;DHT22;6801;53.018;11.560;2022-09-28T04:27:51;10.50;77.10
13458;DHT22;6801;53.018;11.560;2022-09-28T04:30:39;10.40;77.10
13458;DHT22;6801;53.018;11.560;2022-09-28T04:33:05;10.40;77.10
13458;DHT22;6801;53.018;11.560;2022-09-28T04:35:32;10.50;77.10
13458;DHT22;6801;53.018;11.560;2022-09-28T04:38:02;10.50;77.10
13458;DHT22;6801;53.018;11.560;2022-09-28T04:40:29;10.50;77.10
13458;DHT22;6801;53.018;11.560;2022-09-28T04:42:56;10.40;77.10
13458;DHT22;6801;53.018;11.560;2022-09-28T04:45:24;10.50;77.10
13458;DHT22;6801;53.018;11.560;2022-09-28T04:47:54;10.50;77.30
13458;DHT22;6801;53.018;11.560;2022-09-28T04:50:52;10.50;77.30
13458;DHT22;6801;53.018;11.560;2022-09-28T04:53:23;10.40;77.20
13458;DHT22;6801;53.018;11.560;2022-09-28T04:55:56;10.50;77.20
13458;DHT22;6801;53.018;11.560;2022-09-28T04:58:23;10.50;77.10
13458;DHT22;6801;53.018;11.560;2022-09-28T05:00:51;10.50;77.20
13458;DHT22;6801;53.018;11.560;2022-09-28T05:03:45;10.50;77.10
13458;DHT22;6801;53.018;11.560;2022-09-28T05:06:16;10.50;77.10
13458;DHT22;6801;53.018;11.560;2022-09-28T05:08:46;10.50;77.10
13458;DHT22;6801;53.018;11.560;2022-09-28T05:11:14;10.50;77.10
13458;DHT22;6801;53.018;11.560;2022-09-28T05:13:42;10.50;77.10
13458;DHT22;6801;53.018;11.560;2022-09-28T05:16:13;10.50;77.10
13458;DHT22;6801;53.018;11.560;2022-09-28T05:18:59;10.50;77.10
13458;DHT22;6801;53.018;11.560;2022-09-28T05:21:26;10.50;77.10
13458;DHT22;6801;53.018;11.560;2022-09-28T05:23:55;10.40;77.10
13458;DHT22;6801;53.018;11.560;2022-09-28T05:26:23;10.40;77.10
13458;DHT22;6801;53.018;11.560;2022-09-28T05:28:50;10.40;77.10
13458;DHT22;6801;53.018;11.560;2022-09-28T05:31:20;10.50;77.10
13458;DHT22;6801;53.018;11.560;2022-09-28T05:34:06;10.40;77.10
13458;DHT22;6801;53.018;11.560;2022-09-28T05:36:33;10.40;77.00
13458;DHT22;6801;53.018;11.560;2022-09-28T05:39:01;10.40;77.00
13458;DHT22;6801;53.018;11.560;2022-09-28T05:41:29;10.40;77.10
13458;DHT22;6801;53.018;11.560;2022-09-28T05:43:56;10.40;77.10
13458;DHT22;6801;53.018;11.560;2022-09-28T05:46:23;10.40;77.10
13458;DHT22;6801;53.018;11.560;2022-09-28T05:48:51;10.40;77.10
13458;DHT22;6801;53.018;11.560;2022-09-28T05:51:19;10.40;77.00
13458;DHT22;6801;53.018;11.560;2022-09-28T05:53:46;10.40;77.10
13458;DHT22;6801;53.018;11.560;2022-09-28T05:56:16;10.50;77.10
13458;DHT22;6801;53.018;11.560;2022-09-28T05:58:44;10.40;77.20
13458;DHT22;6801;53.018;11.560;2022-09-28T06:01:11;10.40;77.30
13458;DHT22;6801;53.018;11.560;2022-09-28T06:03:38;10.50;77.40
13458;DHT22;6801;53.018;11.560;2022-09-28T06:06:05;10.50;77.30
13458;DHT22;6801;53.018;11.560;2022-09-28T06:08:33;10.50;77.30
13458;DHT22;6801;53.018;11.560;2022-09-28T06:11:21;10.50;77.20
13458;DHT22;6801;53.018;11.560;2022-09-28T06:13:52;10.50;77.20
13458;DHT22;6801;53.018;11.560;2022-09-28T06:16:20;10.50;77.20
13458;DHT22;6801;53.018;11.560;2022-09-28T06:18:48;10.50;77.30
13458;DHT22;6801;53.018;11.560;2022-09-28T06:21:31;10.50;77.20
13458;DHT22;6801;53.018;11.560;2022-09-28T06:23:58;10.50;77.20
13458;DHT22;6801;53.018;11.560;2022-09-28T06:26:26;10.60;77.30
13458;DHT22;6801;53.018;11.560;2022-09-28T06:28:53;10.60;77.40
13458;DHT22;6801;53.018;11.560;2022-09-28T06:31:20;10.70;77.40
13458;DHT22;6801;53.018;11.560;2022-09-28T06:33:49;10.80;77.50
13458;DHT22;6801;53.018;11.560;2022-09-28T06:36:17;10.80;77.50
13458;DHT22;6801;53.018;11.560;2022-09-28T06:38:45;10.80;77.50
13458;DHT22;6801;53.018;11.560;2022-09-28T06:41:13;10.90;77.60
13458;DHT22;6801;53.018;11.560;2022-09-28T06:43:42;10.90;77.50
13458;DHT22;6801;53.018;11.560;2022-09-28T06:46:33;11.00;77.40
13458;DHT22;6801;53.018;11.560;2022-09-28T06:49:21;11.00;77.40
13458;DHT22;6801;53.018;11.560;2022-09-28T06:52:11;11.00;77.30
13458;DHT22;6801;53.018;11.560;2022-09-28T06:54:58;11.00;77.30
13458;DHT22;6801;53.018;11.560;2022-09-28T06:57:37;11.10;77.20
13458;DHT22;6801;53.018;11.560;2022-09-28T07:00:07;11.10;77.30
13458;DHT22;6801;53.018;11.560;2022-09-28T07:02:35;11.10;77.20
13458;DHT22;6801;53.018;11.560;2022-09-28T07:05:22;11.10;77.30
13458;DHT22;6801;53.018;11.560;2022-09-28T07:07:57;11.10;77.20
13458;DHT22;6801;53.018;11.560;2022-09-28T07:10:44;11.20;77.30
13458;DHT22;6801;53.018;11.560;2022-09-28T07:13:23;11.20;77.30
13458;DHT22;6801;53.018;11.560;2022-09-28T07:15:54;11.30;77.30
13458;DHT22;6801;53.018;11.560;2022-09-28T07:18:22;11.30;77.30
13458;DHT22;6801;53.018;11.560;2022-09-28T07:20:50;11.30;77.40
13458;DHT22;6801;53.018;11.560;2022-09-28T07:23:17;11.40;77.50
13458;DHT22;6801;53.018;11.560;2022-09-28T07:26:22;11.40;77.50
13458;DHT22;6801;53.018;11.560;2022-09-28T07:29:08;11.40;77.40
13458;DHT22;6801;53.018;11.560;2022-09-28T07:31:42;11.50;77.40
13458;DHT22;6801;53.018;11.560;2022-09-28T07:34:28;11.50;77.50
13458;DHT22;6801;53.018;11.560;2022-09-28T07:37:01;11.50;77.70
13458;DHT22;6801;53.018;11.560;2022-09-28T07:39:28;11.60;77.80
13458;DHT22;6801;53.018;11.560;2022-09-28T07:41:55;11.60;77.70
13458;DHT22;6801;53.018;11.560;2022-09-28T07:44:21;11.70;77.60
13458;DHT22;6801;53.018;11.560;2022-09-28T07:46:54;11.70;77.60
13458;DHT22;6801;53.018;11.560;2022-09-28T07:49:43;11.70;77.50
13458;DHT22;6801;53.018;11.560;2022-09-28T07:52:20;11.80;77.50
13458;DHT22;6801;53.018;11.560;2022-09-28T07:55:22;11.80;77.50
13458;DHT22;6801;53.018;11.560;2022-09-28T07:58:10;11.80;77.50
13458;DHT22;6801;53.018;11.560;2022-09-28T08:01:04;11.80;77.40
13458;DHT22;6801;53.018;11.560;2022-09-28T08:03:33;11.80;77.30
13458;DHT22;6801;53.018;11.560;2022-09-28T08:06:02;11.90;77.30
13458;DHT22;6801;53.018;11.560;2022-09-28T08:08:31;11.90;77.30
13458;DHT22;6801;53.018;11.560;2022-09-28T08:10:58;11.90;77.40
13458;DHT22;6801;53.018;11.560;2022-09-28T08:13:44;11.90;77.40
13458;DHT22;6801;53.018;11.560;2022-09-28T08:16:31;11.90;77.40
13458;DHT22;6801;53.018;11.560;2022-09-28T08:19:11;11.90;77.40
13458;DHT22;6801;53.018;11.560;2022-09-28T08:21:38;12.00;77.30
13458;DHT22;6801;53.018;11.560;2022-09-28T08:24:09;12.00;77.40
13458;DHT22;6801;53.018;11.560;2022-09-28T08:26:36;12.00;77.40
13458;DHT22;6801;53.018;11.560;2022-09-28T08:29:04;12.00;77.40
13458;DHT22;6801;53.018;11.560;2022-09-28T08:31:54;12.00;77.50
13458;DHT22;6801;53.018;11.560;2022-09-28T08:34:34;12.10;77.60
13458;DHT22;6801;53.018;11.560;2022-09-28T08:37:20;12.20;77.30
13458;DHT22;6801;53.018;11.560;2022-09-28T08:40:21;12.30;77.00
13458;DHT22;6801;53.018;11.560;2022-09-28T08:43:05;12.30;77.00
13458;DHT22;6801;53.018;11.560;2022-09-28T08:46:09;12.30;77.00
13458;DHT22;6801;53.018;11.560;2022-09-28T08:48:59;12.40;77.00
13458;DHT22;6801;53.018;11.560;2022-09-28T08:51:59;12.40;77.00
13458;DHT22;6801;53.018;11.560;2022-09-28T08:54:49;12.40;77.00
13458;DHT22;6801;53.018;11.560;2022-09-28T08:57:32;12.50;77.00
13458;DHT22;6801;53.018;11.560;2022-09-28T09:00:03;12.50;76.80
13458;DHT22;6801;53.018;11.560;2022-09-28T09:02:37;12.50;76.80
13458;DHT22;6801;53.018;11.560;2022-09-28T09:05:16;12.50;76.70
13458;DHT22;6801;53.018;11.560;2022-09-28T09:08:14;12.60;76.60
13458;DHT22;6801;53.018;11.560;2022-09-28T09:10:51;12.60;76.50
13458;DHT22;6801;53.018;11.560;2022-09-28T09:16:28;12.70;76.40
13458;DHT22;6801;53.018;11.560;2022-09-28T09:19:25;12.70;76.30
13458;DHT22;6801;53.018;11.560;2022-09-28T09:22:15;12.70;76.20
13458;DHT22;6801;53.018;11.560;2022-09-28T09:24:48;12.80;76.20
13458;DHT22;6801;53.018;11.560;2022-09-28T09:27:36;12.80;76.10
13458;DHT22;6801;53.018;11.560;2022-09-28T09:30:08;12.90;76.10
13458;DHT22;6801;53.018;11.560;2022-09-28T09:32:39;12.90;76.10
13458;DHT22;6801;53.018;11.560;2022-09-28T09:35:30;12.90;75.80
13458;DHT22;6801;53.018;11.560;2022-09-28T09:38:34;13.00;75.70
13458;DHT22;6801;53.018;11.560;2022-09-28T09:41:40;13.00;75.80
13458;DHT22;6801;53.018;11.560;2022-09-28T09:47:45;13.20;75.80
13458;DHT22;6801;53.018;11.560;2022-09-28T09:50:27;13.20;75.90
13458;DHT22;6801;53.018;11.560;2022-09-28T09:53:01;13.30;75.90
13458;DHT22;6801;53.018;11.560;2022-09-28T09:55:35;13.30;75.80
13458;DHT22;6801;53.018;11.560;2022-09-28T09:58:25;13.40;75.70
13458;DHT22;6801;53.018;11.560;2022-09-28T10:01:06;13.50;75.70
13458;DHT22;6801;53.018;11.560;2022-09-28T10:04:13;13.50;75.70
13458;DHT22;6801;53.018;11.560;2022-09-28T10:06:42;13.50;75.40
13458;DHT22;6801;53.018;11.560;2022-09-28T10:09:13;13.60;75.60
13458;DHT22;6801;53.018;11.560;2022-09-28T10:11:43;13.50;75.50
13458;DHT22;6801;53.018;11.560;2022-09-28T10:14:16;13.60;75.60
13458;DHT22;6801;53.018;11.560;2022-09-28T10:16:52;13.60;75.30
13458;DHT22;6801;53.018;11.560;2022-09-28T10:19:39;13.60;74.70
13458;DHT22;6801;53.018;11.560;2022-09-28T10:22:27;13.60;73.60
13458;DHT22;6801;53.018;11.560;2022-09-28T10:24:58;13.60;74.10
13458;DHT22;6801;53.018;11.560;2022-09-28T10:27:29;13.70;74.60
13458;DHT22;6801;53.018;11.560;2022-09-28T10:30:01;13.70;74.90
13458;DHT22;6801;53.018;11.560;2022-09-28T10:32:36;13.70;75.00
13458;DHT22;6801;53.018;11.560;2022-09-28T10:35:13;13.70;74.80
13458;DHT22;6801;53.018;11.560;2022-09-28T10:37:53;13.70;74.70
13458;DHT22;6801;53.018;11.560;2022-09-28T10:40:49;13.80;74.10
13458;DHT22;6801;53.018;11.560;2022-09-28T10:43:26;13.80;74.10
13458;DHT22;6801;53.018;11.560;2022-09-28T10:46:04;13.80;74.40
13458;DHT22;6801;53.018;11.560;2022-09-28T10:48:46;13.80;74.40
13458;DHT22;6801;53.018;11.560;2022-09-28T10:51:15;13.90;74.20
13458;DHT22;6801;53.018;11.560;2022-09-28T10:53:58;13.80;74.10
13458;DHT22;6801;53.018;11.560;2022-09-28T10:56:46;13.90;74.20
13458;DHT22;6801;53.018;11.560;2022-09-28T10:59:40;13.90;74.30
13458;DHT22;6801;53.018;11.560;2022-09-28T11:02:25;13.90;74.10
13458;DHT22;6801;53.018;11.560;2022-09-28T11:04:59;13.90;74.10
13458;DHT22;6801;53.018;11.560;2022-09-28T11:07:33;13.90;74.40
13458;DHT22;6801;53.018;11.560;2022-09-28T11:10:18;13.90;74.00
13458;DHT22;6801;53.018;11.560;2022-09-28T11:12:46;13.90;73.80
13458;DHT22;6801;53.018;11.560;2022-09-28T11:15:17;14.00;73.40
13458;DHT22;6801;53.018;11.560;2022-09-28T11:17:47;14.00;73.30
13458;DHT22;6801;53.018;11.560;2022-09-28T11:20:29;14.00;73.40
13458;DHT22;6801;53.018;11.560;2022-09-28T11:23:00;14.00;73.80
13458;DHT22;6801;53.018;11.560;2022-09-28T11:25:41;14.00;74.30
13458;DHT22;6801;53.018;11.560;2022-09-28T11:28:17;14.00;74.40
13458;DHT22;6801;53.018;11.560;2022-09-28T11:30:49;14.00;74.10
13458;DHT22;6801;53.018;11.560;2022-09-28T11:33:43;14.00;73.90
13458;DHT22;6801;53.018;11.560;2022-09-28T11:36:45;14.00;74.20
13458;DHT22;6801;53.018;11.560;2022-09-28T11:39:23;14.10;74.50
13458;DHT22;6801;53.018;11.560;2022-09-28T11:42:00;14.10;74.60
13458;DHT22;6801;53.018;11.560;2022-09-28T11:44:38;14.20;74.70
13458;DHT22;6801;53.018;11.560;2022-09-28T11:47:29;14.20;74.70
13458;DHT22;6801;53.018;11.560;2022-09-28T11:50:03;14.20;74.40
13458;DHT22;6801;53.018;11.560;2022-09-28T11:52:38;14.20;73.00
13458;DHT22;6801;53.018;11.560;2022-09-28T11:55:10;14.20;71.90
13458;DHT22;6801;53.018;11.560;2022-09-28T11:57:41;14.20;71.00
13458;DHT22;6801;53.018;11.560;2022-09-28T12:00:14;14.30;71.00
13458;DHT22;6801;53.018;11.560;2022-09-28T12:02:52;14.30;71.10
13458;DHT22;6801;53.018;11.560;2022-09-28T12:05:27;14.20;72.10
13458;DHT22;6801;53.018;11.560;2022-09-28T12:07:58;14.20;72.70
13458;DHT22;6801;53.018;11.560;2022-09-28T12:10:58;14.20;72.10
13458;DHT22;6801;53.018;11.560;2022-09-28T12:13:46;14.20;71.00
13458;DHT22;6801;53.018;11.560;2022-09-28T12:16:18;14.10;71.20
13458;DHT22;6801;53.018;11.560;2022-09-28T12:18:50;14.10;71.60
13458;DHT22;6801;53.018;11.560;2022-09-28T12:21:32;14.10;71.50
13458;DHT22;6801;53.018;11.560;2022-09-28T12:24:05;14.00;70.90
13458;DHT22;6801;53.018;11.560;2022-09-28T12:26:38;14.00;71.20
13458;DHT22;6801;53.018;11.560;2022-09-28T12:29:11;14.00;71.90
13458;DHT22;6801;53.018;11.560;2022-09-28T12:31:49;14.00;72.10
13458;DHT22;6801;53.018;11.560;2022-09-28T12:34:17;14.00;72.30
13458;DHT22;6801;53.018;11.560;2022-09-28T12:36:54;14.00;72.40
13458;DHT22;6801;53.018;11.560;2022-09-28T12:39:35;14.00;72.60
13458;DHT22;6801;53.018;11.560;2022-09-28T12:42:18;14.00;72.30
13458;DHT22;6801;53.018;11.560;2022-09-28T12:45:01;14.00;72.00
13458;DHT22;6801;53.018;11.560;2022-09-28T12:47:49;14.00;71.90
13458;DHT22;6801;53.018;11.560;2022-09-28T12:50:27;13.90;72.30
13458;DHT22;6801;53.018;11.560;2022-09-28T12:53:09;13.90;71.90
13458;DHT22;6801;53.018;11.560;2022-09-28T12:55:51;13.90;71.70
13458;DHT22;6801;53.018;11.560;2022-09-28T12:58:32;13.80;71.90
13458;DHT22;6801;53.018;11.560;2022-09-28T13:01:10;13.80;72.20
13458;DHT22;6801;53.018;11.560;2022-09-28T13:04:11;13.80;72.30
13458;DHT22;6801;53.018;11.560;2022-09-28T13:06:46;13.70;72.10
13458;DHT22;6801;53.018;11.560;2022-09-28T13:09:21;13.70;72.30
13458;DHT22;6801;53.018;11.560;2022-09-28T13:12:14;13.60;72.00
13458;DHT22;6801;53.018;11.560;2022-09-28T13:15:15;13.60;71.60
13458;DHT22;6801;53.018;11.560;2022-09-28T13:17:52;13.50;72.00
13458;DHT22;6801;53.018;11.560;2022-09-28T13:20:32;13.50;72.00
13458;DHT22;6801;53.018;11.560;2022-09-28T13:23:13;13.50;71.60
13458;DHT22;6801;53.018;11.560;2022-09-28T13:25:48;13.40;71.40
13458;DHT22;6801;53.018;11.560;2022-09-28T13:28:17;13.40;70.80
13458;DHT22;6801;53.018;11.560;2022-09-28T13:30:46;13.30;70.60
13458;DHT22;6801;53.018;11.560;2022-09-28T13:33:20;13.20;70.90
13458;DHT22;6801;53.018;11.560;2022-09-28T13:35:48;13.20;71.30
13458;DHT22;6801;53.018;11.560;2022-09-28T13:41:16;13.00;71.60
13458;DHT22;6801;53.018;11.560;2022-09-28T13:46:38;13.00;71.80
13458;DHT22;6801;53.018;11.560;2022-09-28T13:49:16;12.90;72.00
13458;DHT22;6801;53.018;11.560;2022-09-28T13:52:01;12.90;72.10
13458;DHT22;6801;53.018;11.560;2022-09-28T13:54:48;12.90;72.10
13458;DHT22;6801;53.018;11.560;2022-09-28T13:57:22;12.90;72.20
13458;DHT22;6801;53.018;11.560;2022-09-28T14:00:06;12.80;72.30
13458;DHT22;6801;53.018;11.560;2022-09-28T14:02:41;12.80;72.50
13458;DHT22;6801;53.018;11.560;2022-09-28T14:05:43;12.80;73.00
13458;DHT22;6801;53.018;11.560;2022-09-28T14:08:31;12.80;73.10
13458;DHT22;6801;53.018;11.560;2022-09-28T14:14:30;12.80;73.50
13458;DHT22;6801;53.018;11.560;2022-09-28T14:20:16;12.80;73.80
13458;DHT22;6801;53.018;11.560;2022-09-28T14:25:36;12.80;74.10
13458;DHT22;6801;53.018;11.560;2022-09-28T14:28:27;12.80;74.10
13458;DHT22;6801;53.018;11.560;2022-09-28T14:31:06;12.80;74.10
13458;DHT22;6801;53.018;11.560;2022-09-28T14:33:35;12.80;74.30
13458;DHT22;6801;53.018;11.560;2022-09-28T14:36:05;12.80;74.30
13458;DHT22;6801;53.018;11.560;2022-09-28T14:38:36;12.80;74.20
13458;DHT22;6801;53.018;11.560;2022-09-28T14:41:27;12.80;74.40
13458;DHT22;6801;53.018;11.560;2022-09-28T14:44:04;12.80;74.40
13458;DHT22;6801;53.018;11.560;2022-09-28T14:46:39;12.80;74.50
13458;DHT22;6801;53.018;11.560;2022-09-28T14:49:44;12.80;74.60
13458;DHT22;6801;53.018;11.560;2022-09-28T14:52:38;12.80;74.60
13458;DHT22;6801;53.018;11.560;2022-09-28T14:55:13;12.80;74.60
13458;DHT22;6801;53.018;11.560;2022-09-28T14:57:41;12.80;74.50
13458;DHT22;6801;53.018;11.560;2022-09-28T15:00:15;12.80;74.50
13458;DHT22;6801;53.018;11.560;2022-09-28T15:02:48;12.80;74.40
13458;DHT22;6801;53.018;11.560;2022-09-28T15:05:28;12.80;74.60
13458;DHT22;6801;53.018;11.560;2022-09-28T15:07:56;12.80;74.70
13458;DHT22;6801;53.018;11.560;2022-09-28T15:10:25;12.80;74.70
13458;DHT22;6801;53.018;11.560;2022-09-28T15:12:56;12.80;74.70
13458;DHT22;6801;53.018;11.560;2022-09-28T15:15:30;12.80;74.70
13458;DHT22;6801;53.018;11.560;2022-09-28T15:18:12;12.80;74.70
13458;DHT22;6801;53.018;11.560;2022-09-28T15:20:45;12.80;74.70
13458;DHT22;6801;53.018;11.560;2022-09-28T15:23:25;12.80;74.70
13458;DHT22;6801;53.018;11.560;2022-09-28T15:25:53;12.80;74.80
13458;DHT22;6801;53.018;11.560;2022-09-28T15:28:22;12.80;74.80
13458;DHT22;6801;53.018;11.560;2022-09-28T15:30:49;12.80;74.90
13458;DHT22;6801;53.018;11.560;2022-09-28T15:33:25;12.80;74.90
13458;DHT22;6801;53.018;11.560;2022-09-28T15:36:15;12.80;74.90
13458;DHT22;6801;53.018;11.560;2022-09-28T15:38:50;12.90;74.80
13458;DHT22;6801;53.018;11.560;2022-09-28T15:41:17;12.80;74.90
13458;DHT22;6801;53.018;11.560;2022-09-28T15:44:04;12.80;74.90
13458;DHT22;6801;53.018;11.560;2022-09-28T15:46:35;12.80;74.80
13458;DHT22;6801;53.018;11.560;2022-09-28T15:49:04;12.80;74.90
13458;DHT22;6801;53.018;11.560;2022-09-28T15:51:47;12.80;74.90
13458;DHT22;6801;53.018;11.560;2022-09-28T15:54:21;12.80;74.90
13458;DHT22;6801;53.018;11.560;2022-09-28T15:56:50;12.80;74.80
13458;DHT22;6801;53.018;11.560;2022-09-28T15:59:24;12.80;74.80
13458;DHT22;6801;53.018;11.560;2022-09-28T16:02:02;12.80;74.90
13458;DHT22;6801;53.018;11.560;2022-09-28T16:04:38;12.80;74.60
13458;DHT22;6801;53.018;11.560;2022-09-28T16:07:24;12.70;74.60
13458;DHT22;6801;53.018;11.560;2022-09-28T16:09:58;12.80;74.70
13458;DHT22;6801;53.018;11.560;2022-09-28T16:12:28;12.70;74.70
13458;DHT22;6801;53.018;11.560;2022-09-28T16:14:58;12.70;74.70
13458;DHT22;6801;53.018;11.560;2022-09-28T16:17:30;12.70;74.70
13458;DHT22;6801;53.018;11.560;2022-09-28T16:20:00;12.60;74.80
13458;DHT22;6801;53.018;11.560;2022-09-28T16:22:29;12.70;74.80
13458;DHT22;6801;53.018;11.560;2022-09-28T16:24:58;12.60;74.80
13458;DHT22;6801;53.018;11.560;2022-09-28T16:27:28;12.60;74.80
13458;DHT22;6801;53.018;11.560;2022-09-28T16:30:14;12.60;74.80
13458;DHT22;6801;53.018;11.560;2022-09-28T16:32:48;12.50;74.90
13458;DHT22;6801;53.018;11.560;2022-09-28T16:35:21;12.50;74.90
13458;DHT22;6801;53.018;11.560;2022-09-28T16:38:02;12.50;74.90
13458;DHT22;6801;53.018;11.560;2022-09-28T16:40:31;12.50;75.00
13458;DHT22;6801;53.018;11.560;2022-09-28T16:43:00;12.50;75.00
13458;DHT22;6801;53.018;11.560;2022-09-28T16:45:29;12.40;75.00